createdAt,value
2023-02-05T00:01:09.708Z,35.15
2023-02-05T00:03:36.921Z,36.22
2023-02-05T00:06:03.384Z,37.83
2023-02-05T00:08:31.082Z,36.53
2023-02-05T00:10:57.510Z,38.88
2023-02-05T00:13:23.833Z,37.10
2023-02-05T00:15:50.168Z,37.67
2023-02-05T00:18:16.506Z,37.33
2023-02-05T00:20:42.877Z,37.45
2023-02-05T00:23:09.224Z,37.83
2023-02-05T00:25:35.781Z,42.55
2023-02-05T00:28:02.421Z,40.08
2023-02-05T00:30:28.925Z,40.58
2023-02-05T00:32:55.312Z,39.90
2023-02-05T00:35:21.659Z,39.63
2023-02-05T00:37:47.986Z,42.10
2023-02-05T00:40:14.388Z,38.47
2023-02-05T00:42:40.740Z,40.72
2023-02-05T00:45:07.769Z,38.65
2023-02-05T00:47:34.157Z,37.63
2023-02-05T00:50:00.545Z,39.30
2023-02-05T00:52:26.963Z,34.65
2023-02-05T00:54:53.508Z,37.92
2023-02-05T00:57:24.540Z,37.88
2023-02-05T00:59:52.272Z,41.35
2023-02-05T01:02:23.564Z,38.15
2023-02-05T01:04:51.397Z,38.35
2023-02-05T01:07:18.949Z,36.13
2023-02-05T01:09:45.389Z,40.10
2023-02-05T01:12:14.082Z,38.20
2023-02-05T01:14:41.528Z,44.03
2023-02-05T01:17:07.940Z,43.30
2023-02-05T01:19:35.039Z,46.30
2023-02-05T01:22:01.436Z,48.20
2023-02-05T01:24:28.057Z,51.15
2023-02-05T01:26:56.051Z,51.58
2023-02-05T01:29:23.196Z,50.90
2023-02-05T01:31:49.560Z,54.53
2023-02-05T01:34:16.074Z,52.97
2023-02-05T01:36:42.416Z,55.97
2023-02-05T01:39:09.008Z,55.47
2023-02-05T01:41:35.643Z,58.13
2023-02-05T01:44:12.537Z,59.33
2023-02-05T01:46:43.654Z,58.58
2023-02-05T01:49:22.479Z,60.40
2023-02-05T01:51:50.162Z,59.22
2023-02-05T01:54:20.052Z,61.35
2023-02-05T01:56:52.760Z,59.30
2023-02-05T01:59:24.288Z,62.58
2023-02-05T02:01:50.691Z,59.50
2023-02-05T02:04:30.292Z,61.35
2023-02-05T02:06:56.634Z,63.40
2023-02-05T02:09:23.166Z,63.85
2023-02-05T02:11:49.602Z,63.28
2023-02-05T02:14:16.457Z,63.80
2023-02-05T02:16:42.962Z,64.88
2023-02-05T02:19:20.081Z,65.05
2023-02-05T02:22:10.556Z,64.50
2023-02-05T02:24:57.855Z,63.58
2023-02-05T02:27:40.920Z,66.95
2023-02-05T02:30:24.820Z,65.53
2023-02-05T02:33:18.652Z,70.93
2023-02-05T02:36:43.209Z,69.63
2023-02-05T02:39:17.987Z,73.40
2023-02-05T02:41:48.931Z,71.22
2023-02-05T02:44:25.753Z,76.35
2023-02-05T02:46:55.374Z,68.93
2023-02-05T02:49:28.768Z,73.90
2023-02-05T02:51:57.935Z,75.30
2023-02-05T02:54:26.371Z,73.20
2023-02-05T02:56:54.095Z,71.75
2023-02-05T02:59:24.768Z,66.40
2023-02-05T03:02:04.593Z,68.20
2023-02-05T03:04:35.046Z,72.38
2023-02-05T03:07:27.525Z,70.45
2023-02-05T03:10:02.494Z,71.35
2023-02-05T03:12:29.075Z,74.75
2023-02-05T03:14:55.758Z,68.50
2023-02-05T03:17:24.475Z,70.82
2023-02-05T03:20:00.986Z,72.13
2023-02-05T03:22:27.421Z,69.47
2023-02-05T03:24:53.943Z,70.07
2023-02-05T03:27:22.459Z,70.57
2023-02-05T03:29:50.095Z,70.13
2023-02-05T03:32:35.055Z,73.20
2023-02-05T03:35:19.222Z,77.18
2023-02-05T03:38:03.048Z,73.22
2023-02-05T03:40:45.952Z,79.40
2023-02-05T03:43:23.306Z,75.82
2023-02-05T03:46:10.813Z,77.82
2023-02-05T03:49:01.754Z,76.57
2023-02-05T03:51:44.266Z,73.25
2023-02-05T03:54:24.788Z,75.90
2023-02-05T03:57:05.735Z,76.93
2023-02-05T03:59:33.776Z,73.70
2023-02-05T04:02:00.801Z,75.28
2023-02-05T04:04:27.681Z,72.63
2023-02-05T04:06:54.160Z,73.22
2023-02-05T04:09:20.564Z,73.65
2023-02-05T04:11:46.983Z,74.63
2023-02-05T04:14:13.507Z,74.28
2023-02-05T04:16:39.942Z,77.00
2023-02-05T04:19:06.316Z,74.40
2023-02-05T04:21:32.718Z,76.50
2023-02-05T04:23:59.049Z,76.00
2023-02-05T04:26:25.454Z,75.28
2023-02-05T04:28:51.770Z,78.70
2023-02-05T04:31:18.200Z,79.85
2023-02-05T04:33:44.644Z,86.80
2023-02-05T04:36:11.307Z,88.10
2023-02-05T04:38:37.729Z,87.95
2023-02-05T04:41:04.836Z,92.05
2023-02-05T04:43:31.188Z,90.80
2023-02-05T04:45:57.595Z,89.65
2023-02-05T04:48:24.028Z,93.80
2023-02-05T04:50:50.394Z,92.18
2023-02-05T04:53:16.798Z,90.20
2023-02-05T04:55:43.143Z,84.13
2023-02-05T04:58:09.514Z,88.55
2023-02-05T05:00:36.129Z,84.20
2023-02-05T05:03:02.631Z,86.82
2023-02-05T05:05:28.983Z,85.07
2023-02-05T05:07:55.396Z,81.20
2023-02-05T05:10:21.748Z,83.50
2023-02-05T05:12:48.060Z,83.72
2023-02-05T05:15:14.390Z,80.63
2023-02-05T05:17:40.835Z,82.95
2023-02-05T05:20:07.454Z,81.15
2023-02-05T05:22:33.843Z,83.13
2023-02-05T05:25:00.258Z,85.25
2023-02-05T05:27:26.676Z,83.47
2023-02-05T05:29:53.026Z,75.78
2023-02-05T05:32:19.527Z,77.70
2023-02-05T05:34:45.938Z,76.75
2023-02-05T05:37:12.388Z,73.10
2023-02-05T05:39:57.360Z,72.82
2023-02-05T05:42:42.141Z,73.90
2023-02-05T05:45:08.757Z,69.50
2023-02-05T05:47:35.089Z,68.93
2023-02-05T05:50:01.443Z,67.40
2023-02-05T05:52:27.796Z,66.80
2023-02-05T05:54:54.231Z,64.13
2023-02-05T05:57:21.115Z,67.50
2023-02-05T05:59:47.509Z,65.38
2023-02-05T06:02:13.843Z,63.97
2023-02-05T06:04:40.371Z,64.25
2023-02-05T06:07:06.777Z,66.57
2023-02-05T06:09:33.131Z,61.85
2023-02-05T06:11:59.587Z,60.53
2023-02-05T06:14:25.970Z,60.63
2023-02-05T06:16:55.054Z,61.83
2023-02-05T06:19:22.624Z,61.70
2023-02-05T06:21:49.029Z,58.95
2023-02-05T06:24:15.470Z,60.97
2023-02-05T06:26:42.883Z,62.15
2023-02-05T06:29:09.217Z,60.17
2023-02-05T06:31:35.617Z,62.17
2023-02-05T06:34:02.020Z,65.35
2023-02-05T06:36:28.411Z,63.03
2023-02-05T06:38:54.840Z,60.72
2023-02-05T06:41:21.249Z,60.72
2023-02-05T06:43:47.691Z,64.00
2023-02-05T06:46:14.068Z,62.28
2023-02-05T06:48:40.520Z,60.38
2023-02-05T06:51:06.876Z,60.50
2023-02-05T06:53:33.238Z,62.33
2023-02-05T06:55:59.612Z,62.20
2023-02-05T06:58:26.088Z,64.53
2023-02-05T07:00:52.400Z,61.70
2023-02-05T07:03:18.818Z,72.18
2023-02-05T07:05:45.139Z,64.20
2023-02-05T07:08:11.520Z,65.53
2023-02-05T07:10:38.344Z,64.05
2023-02-05T07:13:05.992Z,65.68
2023-02-05T07:15:32.969Z,67.32
2023-02-05T07:17:59.413Z,69.00
2023-02-05T07:20:25.735Z,66.78
2023-02-05T07:22:52.062Z,67.22
2023-02-05T07:25:18.458Z,72.07
2023-02-05T07:27:44.886Z,67.68
2023-02-05T07:30:12.178Z,72.20
2023-02-05T07:32:38.540Z,69.57
2023-02-05T07:35:05.188Z,70.07
2023-02-05T07:37:31.537Z,65.22
2023-02-05T07:39:57.979Z,68.28
2023-02-05T07:42:24.397Z,69.50
2023-02-05T07:44:50.725Z,62.83
2023-02-05T07:47:17.094Z,62.63
2023-02-05T07:49:43.450Z,65.15
2023-02-05T07:52:09.812Z,57.15
2023-02-05T07:54:36.144Z,60.88
2023-02-05T07:57:06.953Z,56.85
2023-02-05T07:59:33.494Z,58.92
2023-02-05T08:01:59.813Z,55.88
2023-02-05T08:04:26.285Z,53.85
2023-02-05T08:06:52.682Z,54.88
2023-02-05T08:09:19.093Z,51.30
2023-02-05T08:11:45.452Z,45.53
2023-02-05T08:14:11.979Z,40.28
2023-02-05T08:16:38.312Z,40.17
2023-02-05T08:19:04.705Z,40.08
2023-02-05T08:21:31.004Z,40.35
2023-02-05T08:23:58.471Z,35.53
2023-02-05T08:26:24.827Z,35.88
2023-02-05T08:28:51.465Z,34.55
2023-02-05T08:31:19.331Z,34.45
2023-02-05T08:33:47.697Z,32.70
2023-02-05T08:36:14.360Z,34.72
2023-02-05T08:38:40.813Z,37.78
2023-02-05T08:41:12.415Z,37.63
2023-02-05T08:43:47.292Z,30.80
2023-02-05T08:46:17.510Z,34.53
2023-02-05T08:48:43.943Z,31.95
2023-02-05T08:51:11.897Z,27.42
2023-02-05T08:53:39.078Z,26.25
2023-02-05T08:56:06.340Z,27.40
2023-02-05T08:58:33.083Z,22.17
2023-02-05T09:01:04.639Z,25.80
2023-02-05T09:03:31.745Z,24.70
2023-02-05T09:05:59.786Z,32.65
2023-02-05T09:08:28.035Z,27.95
2023-02-05T09:10:55.335Z,28.50
2023-02-05T09:13:21.730Z,26.80
2023-02-05T09:15:48.748Z,22.55
2023-02-05T09:18:15.471Z,25.58
2023-02-05T09:20:43.951Z,26.83
2023-02-05T09:23:12.114Z,25.90
2023-02-05T09:25:40.411Z,22.80
2023-02-05T09:28:09.409Z,29.02
2023-02-05T09:30:37.647Z,25.55
2023-02-05T09:33:04.102Z,26.75
2023-02-05T09:35:34.809Z,29.58
2023-02-05T09:38:03.427Z,27.60
2023-02-05T09:40:35.818Z,26.58
2023-02-05T09:43:23.912Z,29.27
2023-02-05T09:45:50.184Z,30.65
2023-02-05T09:48:40.936Z,33.13
2023-02-05T09:51:11.604Z,29.05
2023-02-05T09:53:44.159Z,26.77
2023-02-05T09:56:13.683Z,28.20
2023-02-05T09:58:45.348Z,27.15
2023-02-05T10:01:29.174Z,29.85
2023-02-05T10:04:06.153Z,29.30
2023-02-05T10:06:42.686Z,27.48
2023-02-05T10:09:49.425Z,27.92
2023-02-05T10:12:31.239Z,27.73
2023-02-05T10:15:13.459Z,29.73
2023-02-05T10:17:58.413Z,30.80
2023-02-05T10:20:46.554Z,35.45
2023-02-05T10:23:27.088Z,37.17
2023-02-05T10:26:19.411Z,37.75
2023-02-05T10:29:10.289Z,33.50
2023-02-05T10:31:42.688Z,34.78
2023-02-05T10:34:37.925Z,33.90
2023-02-05T10:37:11.971Z,36.88
2023-02-05T10:39:38.604Z,35.60
2023-02-05T10:42:07.058Z,35.33
2023-02-05T10:44:46.293Z,35.65
2023-02-05T10:47:25.000Z,28.02
2023-02-05T10:50:14.169Z,31.83
2023-02-05T10:52:40.556Z,24.98
2023-02-05T10:55:13.786Z,26.55
2023-02-05T10:57:40.641Z,29.27
2023-02-05T11:00:22.373Z,24.67
2023-02-05T11:02:52.079Z,24.65
2023-02-05T11:05:29.641Z,27.77
2023-02-05T11:07:56.237Z,23.33
2023-02-05T11:10:24.208Z,24.98
2023-02-05T11:12:56.748Z,23.00
2023-02-05T11:15:29.073Z,23.67
2023-02-05T11:18:01.599Z,22.67
2023-02-05T11:20:31.437Z,21.70
2023-02-05T11:23:21.205Z,23.83
2023-02-05T11:25:59.870Z,22.02
2023-02-05T11:28:31.505Z,26.63
2023-02-05T11:31:18.210Z,22.92
2023-02-05T11:33:44.606Z,22.63
2023-02-05T11:36:38.517Z,24.80
2023-02-05T11:39:06.801Z,22.10
2023-02-05T11:41:54.972Z,21.63
2023-02-05T11:44:26.436Z,26.60
2023-02-05T11:46:57.031Z,23.33
2023-02-05T11:49:32.764Z,28.70
2023-02-05T11:51:59.788Z,22.60
2023-02-05T11:54:32.955Z,23.83
2023-02-05T11:57:06.541Z,19.55
2023-02-05T11:59:35.222Z,19.50
2023-02-05T12:02:28.292Z,16.95
2023-02-05T12:05:09.522Z,21.10
2023-02-05T12:07:41.777Z,18.67
2023-02-05T12:10:34.752Z,21.33
2023-02-05T12:13:22.728Z,20.10
2023-02-05T12:16:12.664Z,19.45
2023-02-05T12:19:07.706Z,15.23
2023-02-05T12:21:45.604Z,14.30
2023-02-05T12:24:22.003Z,17.92
2023-02-05T12:26:51.389Z,23.67
2023-02-05T12:29:55.500Z,15.45
2023-02-05T12:32:48.678Z,20.70
2023-02-05T12:35:33.035Z,15.10
2023-02-05T12:40:59.707Z,14.35
2023-02-05T12:43:41.971Z,15.32
2023-02-05T12:46:47.785Z,17.83
2023-02-05T12:49:46.340Z,17.80
2023-02-05T12:52:31.035Z,13.07
2023-02-05T12:55:27.356Z,18.83
2023-02-05T12:57:58.946Z,17.75
2023-02-05T13:00:37.828Z,13.82
2023-02-05T13:03:20.907Z,19.73
2023-02-05T13:05:55.133Z,18.00
2023-02-05T13:10:59.801Z,20.13
2023-02-05T13:13:31.935Z,17.27
2023-02-05T13:16:04.837Z,15.05
2023-02-05T13:18:35.859Z,18.08
2023-02-05T13:21:28.539Z,15.40
2023-02-05T13:24:23.041Z,13.10
2023-02-05T13:27:08.840Z,13.63
2023-02-05T13:29:46.421Z,18.73
2023-02-05T13:32:16.542Z,20.13
2023-02-05T13:34:43.433Z,12.15
2023-02-05T13:37:43.713Z,9.77
2023-02-05T13:40:22.008Z,8.38
2023-02-05T13:43:05.296Z,12.43
2023-02-05T13:46:07.162Z,12.77
2023-02-05T13:48:59.931Z,11.30
2023-02-05T13:51:50.456Z,10.70
2023-02-05T13:54:48.749Z,12.13
2023-02-05T13:57:41.416Z,12.80
2023-02-05T14:00:14.486Z,9.48
2023-02-05T14:02:44.179Z,15.13
2023-02-05T14:05:13.537Z,10.20
2023-02-05T14:07:51.348Z,13.70
2023-02-05T14:10:39.164Z,16.77
2023-02-05T14:13:25.732Z,17.63
2023-02-05T14:15:57.424Z,12.75
2023-02-05T14:18:45.085Z,16.52
2023-02-05T14:21:29.695Z,17.10
2023-02-05T14:26:53.193Z,17.58
2023-02-05T14:29:45.611Z,17.15
2023-02-05T14:32:13.815Z,17.88
2023-02-05T14:34:40.143Z,23.27
2023-02-05T14:37:25.232Z,17.98
2023-02-05T14:39:51.952Z,22.15
2023-02-05T14:42:22.116Z,26.63
2023-02-05T14:45:00.213Z,19.40
2023-02-05T14:47:31.279Z,20.13
2023-02-05T14:50:17.461Z,25.33
2023-02-05T14:52:54.168Z,21.20
2023-02-05T14:55:43.683Z,18.80
2023-02-05T14:58:27.369Z,27.45
2023-02-05T15:01:29.651Z,20.63
2023-02-05T15:03:59.134Z,22.40
2023-02-05T15:06:28.397Z,25.45
2023-02-05T15:09:17.766Z,17.13
2023-02-05T15:12:20.524Z,20.83
2023-02-05T15:14:54.551Z,19.88
2023-02-05T15:17:29.968Z,20.67
2023-02-05T15:20:20.061Z,22.08
2023-02-05T15:22:56.266Z,22.10
2023-02-05T15:25:32.822Z,18.38
2023-02-05T15:28:04.064Z,14.90
2023-02-05T15:30:43.129Z,15.10
2023-02-05T15:33:20.202Z,17.17
2023-02-05T15:35:49.800Z,14.43
2023-02-05T15:38:28.124Z,10.85
2023-02-05T15:40:54.760Z,16.52
2023-02-05T15:43:26.357Z,18.45
2023-02-05T15:46:01.035Z,14.95
2023-02-05T15:48:30.742Z,14.02
2023-02-05T15:51:17.456Z,20.63
2023-02-05T15:53:50.008Z,15.32
2023-02-05T15:56:20.173Z,19.77
2023-02-05T15:59:10.196Z,17.05
2023-02-05T16:01:53.292Z,12.88
2023-02-05T16:04:22.618Z,17.02
2023-02-05T16:06:49.247Z,20.23
2023-02-05T16:09:20.878Z,19.92
2023-02-05T16:11:48.349Z,16.02
2023-02-05T16:14:18.041Z,17.02
2023-02-05T16:17:23.342Z,13.30
2023-02-05T16:20:17.206Z,17.45
2023-02-05T16:22:49.252Z,15.57
2023-02-05T16:25:21.734Z,19.10
2023-02-05T16:27:51.350Z,16.00
2023-02-05T16:30:30.947Z,18.90
2023-02-05T16:32:59.657Z,14.73
2023-02-05T16:35:33.917Z,24.42
2023-02-05T16:40:40.680Z,13.25
2023-02-05T16:43:29.200Z,14.98
2023-02-05T16:46:07.666Z,15.52
2023-02-05T16:48:37.476Z,20.45
2023-02-05T16:51:05.337Z,19.52
2023-02-05T16:53:37.769Z,31.77
2023-02-05T16:56:20.511Z,17.23
2023-02-05T16:58:51.380Z,17.30
2023-02-05T17:01:27.783Z,21.13
2023-02-05T17:03:55.415Z,26.60
2023-02-05T17:06:23.797Z,15.27
2023-02-05T17:08:53.156Z,16.88
2023-02-05T17:11:33.485Z,22.73
2023-02-05T17:14:28.549Z,26.35
2023-02-05T17:17:03.742Z,24.48
2023-02-05T17:19:32.355Z,16.52
2023-02-05T17:22:13.962Z,21.55
2023-02-05T17:24:49.083Z,16.00
2023-02-05T17:27:30.032Z,16.13
2023-02-05T17:29:57.849Z,24.63
2023-02-05T17:32:25.787Z,23.55
2023-02-05T17:34:52.627Z,19.20
2023-02-05T17:37:19.040Z,17.58
2023-02-05T17:39:45.420Z,18.45
2023-02-05T17:42:20.941Z,18.60
2023-02-05T17:44:47.423Z,14.43
2023-02-05T17:47:13.893Z,22.08
2023-02-05T17:49:40.496Z,14.90
2023-02-05T17:52:06.835Z,18.05
2023-02-05T17:54:33.154Z,17.80
2023-02-05T17:57:10.965Z,23.73
2023-02-05T17:59:37.337Z,16.85
2023-02-05T18:02:04.984Z,17.55
2023-02-05T18:04:31.495Z,23.95
2023-02-05T18:06:58.030Z,20.83
2023-02-05T18:09:24.394Z,18.85
2023-02-05T18:11:50.767Z,14.25
2023-02-05T18:14:17.347Z,25.73
2023-02-05T18:16:43.750Z,21.02
2023-02-05T18:19:10.125Z,22.33
2023-02-05T18:21:36.558Z,16.40
2023-02-05T18:24:04.267Z,16.48
2023-02-05T18:26:31.194Z,14.10
2023-02-05T18:28:57.800Z,26.42
2023-02-05T18:31:24.397Z,18.67
2023-02-05T18:33:52.665Z,19.85
2023-02-05T18:36:19.204Z,26.58
2023-02-05T18:38:45.762Z,22.63
2023-02-05T18:41:21.548Z,17.35
2023-02-05T18:43:47.929Z,25.00
2023-02-05T18:46:17.526Z,15.98
2023-02-05T18:48:49.288Z,15.48
2023-02-05T18:51:18.436Z,18.42
2023-02-05T18:53:47.357Z,15.73
2023-02-05T18:56:16.987Z,22.90
2023-02-05T18:58:44.638Z,25.35
2023-02-05T19:01:13.876Z,19.85
2023-02-05T19:03:41.305Z,17.80
2023-02-05T19:06:13.678Z,16.90
2023-02-05T19:08:40.684Z,20.30
2023-02-05T19:11:15.937Z,15.77
2023-02-05T19:13:42.658Z,28.48
2023-02-05T19:16:15.064Z,14.73
2023-02-05T19:18:44.381Z,17.60
2023-02-05T19:21:17.005Z,26.73
2023-02-05T19:23:44.394Z,19.15
2023-02-05T19:26:16.264Z,21.75
2023-02-05T19:28:44.656Z,25.23
2023-02-05T19:31:14.801Z,19.80
2023-02-05T19:33:41.808Z,17.20
2023-02-05T19:36:10.685Z,21.95
2023-02-05T19:38:39.434Z,16.88
2023-02-05T19:41:07.134Z,23.65
2023-02-05T19:43:33.534Z,18.08
2023-02-05T19:46:08.226Z,20.83
2023-02-05T19:48:34.883Z,22.60
2023-02-05T19:51:10.042Z,17.58
2023-02-05T19:53:38.164Z,19.63
2023-02-05T19:56:07.525Z,24.35
2023-02-05T19:58:39.347Z,19.48
2023-02-05T20:01:13.331Z,22.48
2023-02-05T20:03:40.239Z,16.15
2023-02-05T20:06:07.916Z,23.17
2023-02-05T20:08:34.604Z,19.45
2023-02-05T20:11:02.161Z,20.83
2023-02-05T20:13:30.273Z,26.77
2023-02-05T20:16:00.779Z,16.50
2023-02-05T20:18:28.640Z,27.88
2023-02-05T20:20:55.030Z,22.42
2023-02-05T20:23:21.392Z,20.27
2023-02-05T20:25:58.585Z,24.63
2023-02-05T20:28:26.180Z,23.55
2023-02-05T20:31:11.681Z,27.75
2023-02-05T20:33:39.097Z,22.75
2023-02-05T20:36:11.974Z,18.65
2023-02-05T20:38:39.245Z,23.33
2023-02-05T20:41:17.049Z,23.13
2023-02-05T20:43:44.464Z,28.77
2023-02-05T20:46:11.036Z,29.38
2023-02-05T20:48:38.258Z,19.80
2023-02-05T20:51:10.662Z,29.77
2023-02-05T20:53:37.521Z,22.02
2023-02-05T20:56:13.251Z,30.70
2023-02-05T20:58:39.955Z,27.45
2023-02-05T21:01:07.735Z,26.00
2023-02-05T21:03:34.468Z,21.38
2023-02-05T21:06:01.337Z,22.33
2023-02-05T21:08:27.772Z,23.58
2023-02-05T21:10:54.121Z,35.00
2023-02-05T21:13:20.519Z,27.48
2023-02-05T21:15:59.023Z,28.00
2023-02-05T21:18:26.673Z,21.70
2023-02-05T21:20:53.295Z,33.58
2023-02-05T21:23:21.206Z,24.13
2023-02-05T21:25:47.884Z,27.42
2023-02-05T21:28:14.536Z,20.83
2023-02-05T21:30:42.934Z,19.48
2023-02-05T21:33:09.263Z,25.75
2023-02-05T21:35:39.057Z,22.58
2023-02-05T21:38:05.569Z,28.38
2023-02-05T21:40:32.009Z,32.78
2023-02-05T21:42:58.392Z,28.88
2023-02-05T21:45:24.750Z,29.17
2023-02-05T21:47:51.125Z,30.92
2023-02-05T21:50:17.624Z,27.75
2023-02-05T21:52:43.948Z,29.45
2023-02-05T21:55:10.303Z,27.55
2023-02-05T21:57:36.614Z,20.75
2023-02-05T22:00:04.363Z,28.67
2023-02-05T22:02:30.672Z,34.00
2023-02-05T22:04:57.041Z,31.42
2023-02-05T22:07:23.357Z,29.83
2023-02-05T22:09:49.708Z,35.58
2023-02-05T22:12:16.097Z,27.30
2023-02-05T22:14:42.413Z,30.67
2023-02-05T22:17:08.749Z,23.42
2023-02-05T22:19:35.886Z,25.98
2023-02-05T22:22:02.220Z,31.23
2023-02-05T22:24:28.589Z,27.05
2023-02-05T22:26:55.143Z,23.75
2023-02-05T22:29:21.582Z,27.80
2023-02-05T22:31:52.503Z,28.95
2023-02-05T22:34:19.014Z,30.52
2023-02-05T22:36:45.345Z,28.77
2023-02-05T22:39:12.272Z,29.25
2023-02-05T22:41:41.301Z,28.75
2023-02-05T22:44:09.387Z,28.05
2023-02-05T22:46:39.989Z,28.23
2023-02-05T22:49:06.813Z,26.05
2023-02-05T22:51:39.239Z,35.05
2023-02-05T22:54:07.525Z,27.15
2023-02-05T22:56:34.261Z,23.17
2023-02-05T22:59:03.068Z,25.00
2023-02-05T23:01:32.816Z,24.55
2023-02-05T23:03:59.562Z,32.88
2023-02-05T23:06:28.726Z,23.50
2023-02-05T23:09:00.993Z,33.75
2023-02-05T23:11:30.628Z,30.33
2023-02-05T23:13:58.697Z,18.20
2023-02-05T23:16:27.407Z,26.15
2023-02-05T23:18:57.924Z,31.48
2023-02-05T23:21:26.364Z,29.00
2023-02-05T23:23:53.068Z,40.45
2023-02-05T23:26:28.741Z,27.60
2023-02-05T23:28:55.655Z,26.20
2023-02-05T23:31:23.271Z,28.02
2023-02-05T23:33:50.789Z,31.95
2023-02-05T23:36:17.268Z,28.58
2023-02-05T23:38:43.975Z,31.10
2023-02-05T23:41:10.534Z,31.48
2023-02-05T23:43:37.146Z,28.88
2023-02-05T23:46:05.453Z,34.90
2023-02-05T23:48:32.261Z,40.83
2023-02-05T23:50:58.607Z,26.27
2023-02-05T23:53:25.619Z,29.95
2023-02-05T23:55:53.755Z,27.38
2023-02-05T23:58:23.758Z,30.10
